sensor_id;sensor_type;location;lat;lon;timestamp;pressure;altitude;pressure_sealevel;temperature;humidity
77482;BME280;66582;43.004;-75.010;2023-07-31T00:01:26;99983.44;;;23.83;46.96
77482;BME280;66582;43.004;-75.010;2023-07-31T00:03:51;99986.92;;;23.59;48.44
77482;BME280;66582;43.004;-75.010;2023-07-31T00:06:15;99982.57;;;23.18;48.06
77482;BME280;66582;43.004;-75.010;2023-07-31T00:08:41;99984.39;;;22.98;47.62
77482;BME280;66582;43.004;-75.010;2023-07-31T00:11:06;99984.36;;;23.32;46.62
77482;BME280;66582;43.004;-75.010;2023-07-31T00:13:31;99984.18;;;23.30;46.53
77482;BME280;66582;43.004;-75.010;2023-07-31T00:15:57;99980.58;;;22.93;47.49
77482;BME280;66582;43.004;-75.010;2023-07-31T00:18:21;99980.38;;;23.23;46.81
77482;BME280;66582;43.004;-75.010;2023-07-31T00:20:47;99980.87;;;22.96;48.44
77482;BME280;66582;43.004;-75.010;2023-07-31T00:23:12;99986.80;;;22.76;48.56
77482;BME280;66582;43.004;-75.010;2023-07-31T00:25:37;99990.50;;;22.92;47.73
77482;BME280;66582;43.004;-75.010;2023-07-31T00:28:02;99993.25;;;22.81;48.06
77482;BME280;66582;43.004;-75.010;2023-07-31T00:30:27;99995.80;;;22.66;47.73
77482;BME280;66582;43.004;-75.010;2023-07-31T00:32:52;99997.54;;;23.38;46.60
77482;BME280;66582;43.004;-75.010;2023-07-31T00:35:18;99996.68;;;23.52;46.62
77482;BME280;66582;43.004;-75.010;2023-07-31T00:37:43;99998.10;;;23.64;46.19
77482;BME280;66582;43.004;-75.010;2023-07-31T00:40:09;99995.63;;;23.43;46.69
77482;BME280;66582;43.004;-75.010;2023-07-31T00:42:33;99992.86;;;24.29;44.81
77482;BME280;66582;43.004;-75.010;2023-07-31T00:44:58;99994.20;;;23.59;46.25
77482;BME280;66582;43.004;-75.010;2023-07-31T00:47:23;100000.07;;;22.37;48.31
77482;BME280;66582;43.004;-75.010;2023-07-31T00:49:49;100001.57;;;22.66;49.27
77482;BME280;66582;43.004;-75.010;2023-07-31T00:52:14;100009.11;;;22.19;49.71
77482;BME280;66582;43.004;-75.010;2023-07-31T00:54:40;100014.44;;;22.04;52.70
77482;BME280;66582;43.004;-75.010;2023-07-31T00:57:05;100011.49;;;21.41;53.15
77482;BME280;66582;43.004;-75.010;2023-07-31T00:59:30;100008.18;;;22.04;51.27
77482;BME280;66582;43.004;-75.010;2023-07-31T01:01:55;100009.36;;;20.33;55.07
77482;BME280;66582;43.004;-75.010;2023-07-31T01:04:21;100011.21;;;21.05;54.78
77482;BME280;66582;43.004;-75.010;2023-07-31T01:06:52;100008.84;;;22.46;50.24
77482;BME280;66582;43.004;-75.010;2023-07-31T01:09:18;100014.34;;;22.57;50.55
77482;BME280;66582;43.004;-75.010;2023-07-31T01:11:42;100014.53;;;23.04;49.27
77482;BME280;66582;43.004;-75.010;2023-07-31T01:14:02;100019.36;;;23.32;48.27
77482;BME280;66582;43.004;-75.010;2023-07-31T01:16:26;100021.80;;;22.88;48.83
77482;BME280;66582;43.004;-75.010;2023-07-31T01:18:51;100034.31;;;21.57;52.61
77482;BME280;66582;43.004;-75.010;2023-07-31T01:21:28;100041.78;;;21.68;52.45
77482;BME280;66582;43.004;-75.010;2023-07-31T01:26:12;100052.74;;;21.43;54.59
77482;BME280;66582;43.004;-75.010;2023-07-31T01:28:40;100054.43;;;21.06;54.63
77482;BME280;66582;43.004;-75.010;2023-07-31T01:30:59;100057.73;;;21.04;55.46
77482;BME280;66582;43.004;-75.010;2023-07-31T01:33:22;100058.37;;;21.50;54.95
77482;BME280;66582;43.004;-75.010;2023-07-31T01:35:49;100062.38;;;21.27;56.28
77482;BME280;66582;43.004;-75.010;2023-07-31T01:38:12;100064.62;;;21.14;54.75
77482;BME280;66582;43.004;-75.010;2023-07-31T01:40:40;100064.52;;;21.32;54.58
77482;BME280;66582;43.004;-75.010;2023-07-31T01:43:03;100062.71;;;21.47;55.23
77482;BME280;66582;43.004;-75.010;2023-07-31T01:45:28;100064.55;;;21.23;55.68
77482;BME280;66582;43.004;-75.010;2023-07-31T01:47:54;100061.83;;;22.20;53.43
77482;BME280;66582;43.004;-75.010;2023-07-31T01:50:19;100066.31;;;21.72;54.47
77482;BME280;66582;43.004;-75.010;2023-07-31T01:52:44;100069.55;;;19.85;60.75
77482;BME280;66582;43.004;-75.010;2023-07-31T01:55:10;100070.28;;;20.54;58.17
77482;BME280;66582;43.004;-75.010;2023-07-31T01:57:34;100067.84;;;21.43;55.32
77482;BME280;66582;43.004;-75.010;2023-07-31T01:59:59;100066.18;;;20.92;55.24
77482;BME280;66582;43.004;-75.010;2023-07-31T02:02:24;100068.67;;;20.66;57.08
77482;BME280;66582;43.004;-75.010;2023-07-31T02:04:50;100070.75;;;21.48;56.11
77482;BME280;66582;43.004;-75.010;2023-07-31T02:07:15;100072.19;;;20.63;56.95
77482;BME280;66582;43.004;-75.010;2023-07-31T02:09:40;100076.22;;;20.39;58.09
77482;BME280;66582;43.004;-75.010;2023-07-31T02:12:06;100076.32;;;20.86;57.05
77482;BME280;66582;43.004;-75.010;2023-07-31T02:14:30;100077.91;;;19.83;59.11
77482;BME280;66582;43.004;-75.010;2023-07-31T02:16:56;100077.21;;;20.21;58.47
77482;BME280;66582;43.004;-75.010;2023-07-31T02:19:20;100076.87;;;20.94;55.66
77482;BME280;66582;43.004;-75.010;2023-07-31T02:21:46;100079.48;;;21.04;55.14
77482;BME280;66582;43.004;-75.010;2023-07-31T02:24:11;100084.08;;;18.92;61.58
77482;BME280;66582;43.004;-75.010;2023-07-31T02:26:36;100083.29;;;19.62;61.07
77482;BME280;66582;43.004;-75.010;2023-07-31T02:29:01;100092.02;;;16.04;78.32
77482;BME280;66582;43.004;-75.010;2023-07-31T02:31:27;100091.10;;;16.05;83.13
77482;BME280;66582;43.004;-75.010;2023-07-31T02:33:52;100086.32;;;16.79;81.23
77482;BME280;66582;43.004;-75.010;2023-07-31T02:36:17;100086.52;;;15.09;93.98
77482;BME280;66582;43.004;-75.010;2023-07-31T02:38:43;100094.11;;;14.47;95.04
77482;BME280;66582;43.004;-75.010;2023-07-31T02:41:07;100093.78;;;13.16;100.00
77482;BME280;66582;43.004;-75.010;2023-07-31T02:43:32;100091.18;;;13.19;100.00
77482;BME280;66582;43.004;-75.010;2023-07-31T02:45:59;100087.80;;;12.97;100.00
77482;BME280;66582;43.004;-75.010;2023-07-31T02:48:23;100088.37;;;12.71;100.00
77482;BME280;66582;43.004;-75.010;2023-07-31T02:50:48;100092.41;;;13.24;100.00
77482;BME280;66582;43.004;-75.010;2023-07-31T02:53:13;100088.83;;;14.58;100.00
77482;BME280;66582;43.004;-75.010;2023-07-31T02:55:38;100092.95;;;14.20;100.00
77482;BME280;66582;43.004;-75.010;2023-07-31T02:58:04;100091.57;;;14.48;100.00
77482;BME280;66582;43.004;-75.010;2023-07-31T03:00:28;100086.58;;;15.58;97.38
77482;BME280;66582;43.004;-75.010;2023-07-31T03:02:54;100081.73;;;17.81;84.24
77482;BME280;66582;43.004;-75.010;2023-07-31T03:05:19;100077.85;;;19.12;80.07
77482;BME280;66582;43.004;-75.010;2023-07-31T03:07:43;100082.69;;;19.31;76.64
77482;BME280;66582;43.004;-75.010;2023-07-31T03:10:10;100091.17;;;20.35;74.93
77482;BME280;66582;43.004;-75.010;2023-07-31T03:12:35;100089.35;;;20.69;71.49
77482;BME280;66582;43.004;-75.010;2023-07-31T03:15:01;100094.44;;;18.80;72.45
77482;BME280;66582;43.004;-75.010;2023-07-31T03:17:25;100100.35;;;15.03;90.10
77482;BME280;66582;43.004;-75.010;2023-07-31T03:19:51;100095.68;;;15.48;95.24
77482;BME280;66582;43.004;-75.010;2023-07-31T03:22:16;100086.69;;;17.06;86.42
77482;BME280;66582;43.004;-75.010;2023-07-31T03:24:41;100083.46;;;17.61;83.43
77482;BME280;66582;43.004;-75.010;2023-07-31T03:27:07;100078.22;;;17.59;80.84
77482;BME280;66582;43.004;-75.010;2023-07-31T03:29:32;100082.84;;;16.26;88.76
77482;BME280;66582;43.004;-75.010;2023-07-31T03:31:56;100085.01;;;17.78;80.62
77482;BME280;66582;43.004;-75.010;2023-07-31T03:34:21;100080.42;;;16.66;83.28
77482;BME280;66582;43.004;-75.010;2023-07-31T03:36:47;100071.26;;;19.30;75.56
77482;BME280;66582;43.004;-75.010;2023-07-31T03:39:12;100075.93;;;16.74;83.87
77482;BME280;66582;43.004;-75.010;2023-07-31T03:41:37;100071.27;;;18.31;78.10
77482;BME280;66582;43.004;-75.010;2023-07-31T03:44:03;100072.25;;;18.37;78.21
77482;BME280;66582;43.004;-75.010;2023-07-31T03:46:28;100076.49;;;17.72;79.21
77482;BME280;66582;43.004;-75.010;2023-07-31T03:48:54;100070.74;;;18.60;75.87
77482;BME280;66582;43.004;-75.010;2023-07-31T03:51:19;100062.49;;;19.55;73.40
77482;BME280;66582;43.004;-75.010;2023-07-31T03:53:44;100060.23;;;20.17;68.50
77482;BME280;66582;43.004;-75.010;2023-07-31T03:56:09;100057.79;;;19.40;71.79
77482;BME280;66582;43.004;-75.010;2023-07-31T03:58:34;100056.79;;;19.94;69.99
77482;BME280;66582;43.004;-75.010;2023-07-31T04:00:59;100061.22;;;19.17;73.41
77482;BME280;66582;43.004;-75.010;2023-07-31T04:03:25;100061.98;;;19.12;72.07
77482;BME280;66582;43.004;-75.010;2023-07-31T04:05:49;100069.73;;;18.66;73.43
77482;BME280;66582;43.004;-75.010;2023-07-31T04:08:14;100064.03;;;18.94;71.77
77482;BME280;66582;43.004;-75.010;2023-07-31T04:10:39;100060.17;;;18.38;74.54
77482;BME280;66582;43.004;-75.010;2023-07-31T04:13:05;100061.97;;;18.52;72.65
77482;BME280;66582;43.004;-75.010;2023-07-31T04:15:30;100057.40;;;19.03;72.08
77482;BME280;66582;43.004;-75.010;2023-07-31T04:17:55;100061.86;;;19.66;68.60
77482;BME280;66582;43.004;-75.010;2023-07-31T04:20:20;100067.73;;;18.03;72.36
77482;BME280;66582;43.004;-75.010;2023-07-31T04:22:45;100068.48;;;18.46;72.98
77482;BME280;66582;43.004;-75.010;2023-07-31T04:25:10;100067.60;;;18.12;72.92
77482;BME280;66582;43.004;-75.010;2023-07-31T04:27:36;100066.32;;;18.14;72.11
77482;BME280;66582;43.004;-75.010;2023-07-31T04:30:01;100076.50;;;13.19;98.19
77482;BME280;66582;43.004;-75.010;2023-07-31T04:32:26;100076.19;;;13.76;100.00
77482;BME280;66582;43.004;-75.010;2023-07-31T04:34:51;100063.27;;;15.27;94.30
77482;BME280;66582;43.004;-75.010;2023-07-31T04:37:16;100061.19;;;14.63;97.05
77482;BME280;66582;43.004;-75.010;2023-07-31T04:39:41;100063.01;;;14.47;94.05
77482;BME280;66582;43.004;-75.010;2023-07-31T04:42:07;100058.91;;;16.39;88.33
77482;BME280;66582;43.004;-75.010;2023-07-31T04:44:31;100055.44;;;16.58;84.14
77482;BME280;66582;43.004;-75.010;2023-07-31T04:46:57;100052.10;;;16.58;83.88
77482;BME280;66582;43.004;-75.010;2023-07-31T04:49:22;100051.44;;;16.73;81.35
77482;BME280;66582;43.004;-75.010;2023-07-31T04:51:47;100046.48;;;17.23;80.03
77482;BME280;66582;43.004;-75.010;2023-07-31T04:54:12;100037.60;;;16.95;81.41
77482;BME280;66582;43.004;-75.010;2023-07-31T04:56:37;100047.47;;;14.36;93.30
77482;BME280;66582;43.004;-75.010;2023-07-31T04:59:02;100042.19;;;15.20;91.79
77482;BME280;66582;43.004;-75.010;2023-07-31T05:01:29;100038.40;;;15.20;88.97
77482;BME280;66582;43.004;-75.010;2023-07-31T05:03:54;100044.51;;;12.89;100.00
77482;BME280;66582;43.004;-75.010;2023-07-31T05:06:19;100049.71;;;14.04;99.72
77482;BME280;66582;43.004;-75.010;2023-07-31T05:08:44;100046.92;;;15.40;93.01
77482;BME280;66582;43.004;-75.010;2023-07-31T05:11:09;100046.23;;;16.64;85.21
77482;BME280;66582;43.004;-75.010;2023-07-31T05:13:35;100046.93;;;16.92;84.54
77482;BME280;66582;43.004;-75.010;2023-07-31T05:16:00;100054.42;;;13.26;100.00
77482;BME280;66582;43.004;-75.010;2023-07-31T05:18:25;100041.10;;;15.23;93.81
77482;BME280;66582;43.004;-75.010;2023-07-31T05:20:50;100034.13;;;15.95;89.20
77482;BME280;66582;43.004;-75.010;2023-07-31T05:23:15;100033.54;;;16.52;83.32
77482;BME280;66582;43.004;-75.010;2023-07-31T05:25:40;100035.20;;;15.30;87.66
77482;BME280;66582;43.004;-75.010;2023-07-31T05:28:05;100042.07;;;13.56;99.67
77482;BME280;66582;43.004;-75.010;2023-07-31T05:30:31;100038.55;;;13.06;100.00
77482;BME280;66582;43.004;-75.010;2023-07-31T05:32:55;100032.46;;;13.39;100.00
77482;BME280;66582;43.004;-75.010;2023-07-31T05:35:21;100036.20;;;11.93;100.00
77482;BME280;66582;43.004;-75.010;2023-07-31T05:37:46;100038.29;;;10.92;100.00
77482;BME280;66582;43.004;-75.010;2023-07-31T05:40:12;100039.89;;;10.90;100.00
77482;BME280;66582;43.004;-75.010;2023-07-31T05:42:37;100032.55;;;13.59;100.00
77482;BME280;66582;43.004;-75.010;2023-07-31T05:45:03;100017.64;;;15.88;96.73
77482;BME280;66582;43.004;-75.010;2023-07-31T05:47:28;100024.01;;;13.21;100.00
77482;BME280;66582;43.004;-75.010;2023-07-31T05:49:53;100010.31;;;14.75;99.91
77482;BME280;66582;43.004;-75.010;2023-07-31T05:52:18;100010.42;;;13.55;100.00
77482;BME280;66582;43.004;-75.010;2023-07-31T05:54:44;99999.39;;;16.16;92.76
77482;BME280;66582;43.004;-75.010;2023-07-31T05:57:08;99996.48;;;16.98;86.79
77482;BME280;66582;43.004;-75.010;2023-07-31T05:59:34;99999.58;;;17.32;84.18
77482;BME280;66582;43.004;-75.010;2023-07-31T06:01:58;100000.63;;;16.48;83.26
77482;BME280;66582;43.004;-75.010;2023-07-31T06:04:23;100004.52;;;16.86;82.56
77482;BME280;66582;43.004;-75.010;2023-07-31T06:06:49;100002.84;;;16.70;84.53
77482;BME280;66582;43.004;-75.010;2023-07-31T06:09:14;100003.24;;;16.59;82.30
77482;BME280;66582;43.004;-75.010;2023-07-31T06:11:39;100005.48;;;16.07;84.85
77482;BME280;66582;43.004;-75.010;2023-07-31T06:14:04;100009.08;;;13.77;94.06
77482;BME280;66582;43.004;-75.010;2023-07-31T06:16:29;100013.82;;;12.53;100.00
77482;BME280;66582;43.004;-75.010;2023-07-31T06:18:55;100011.70;;;12.26;100.00
77482;BME280;66582;43.004;-75.010;2023-07-31T06:21:20;100013.65;;;12.73;100.00
77482;BME280;66582;43.004;-75.010;2023-07-31T06:23:45;100003.50;;;15.57;95.79
77482;BME280;66582;43.004;-75.010;2023-07-31T06:26:10;100006.24;;;14.84;95.23
77482;BME280;66582;43.004;-75.010;2023-07-31T06:28:35;100003.13;;;14.98;91.71
77482;BME280;66582;43.004;-75.010;2023-07-31T06:31:01;100005.06;;;14.46;100.00
77482;BME280;66582;43.004;-75.010;2023-07-31T06:33:26;100006.65;;;14.52;95.91
77482;BME280;66582;43.004;-75.010;2023-07-31T06:35:51;100004.08;;;17.23;85.38
77482;BME280;66582;43.004;-75.010;2023-07-31T06:38:18;100003.93;;;17.65;78.54
77482;BME280;66582;43.004;-75.010;2023-07-31T06:40:41;99998.57;;;18.29;74.94
77482;BME280;66582;43.004;-75.010;2023-07-31T06:43:07;100003.15;;;17.75;76.56
77482;BME280;66582;43.004;-75.010;2023-07-31T06:45:31;99996.35;;;18.54;72.79
77482;BME280;66582;43.004;-75.010;2023-07-31T06:47:56;100003.61;;;14.94;85.83
77482;BME280;66582;43.004;-75.010;2023-07-31T06:50:22;100010.86;;;15.17;90.83
77482;BME280;66582;43.004;-75.010;2023-07-31T06:52:47;100005.54;;;15.14;87.01
77482;BME280;66582;43.004;-75.010;2023-07-31T06:55:19;100019.80;;;12.70;100.00
77482;BME280;66582;43.004;-75.010;2023-07-31T06:57:37;100020.79;;;12.43;100.00
77482;BME280;66582;43.004;-75.010;2023-07-31T07:00:02;100019.86;;;11.42;100.00
77482;BME280;66582;43.004;-75.010;2023-07-31T07:02:28;100017.50;;;10.68;100.00
77482;BME280;66582;43.004;-75.010;2023-07-31T07:04:52;100013.70;;;11.22;100.00
77482;BME280;66582;43.004;-75.010;2023-07-31T07:07:18;100004.60;;;13.04;100.00
77482;BME280;66582;43.004;-75.010;2023-07-31T07:09:43;99995.03;;;14.41;100.00
77482;BME280;66582;43.004;-75.010;2023-07-31T07:12:08;99995.20;;;13.63;100.00
77482;BME280;66582;43.004;-75.010;2023-07-31T07:14:33;99988.89;;;13.35;100.00
77482;BME280;66582;43.004;-75.010;2023-07-31T07:16:59;99984.40;;;14.96;95.51
77482;BME280;66582;43.004;-75.010;2023-07-31T07:19:24;99976.83;;;17.40;84.58
77482;BME280;66582;43.004;-75.010;2023-07-31T07:21:48;99975.69;;;17.38;82.14
77482;BME280;66582;43.004;-75.010;2023-07-31T07:24:14;99975.70;;;17.19;82.23
77482;BME280;66582;43.004;-75.010;2023-07-31T07:26:39;99971.84;;;17.69;78.76
77482;BME280;66582;43.004;-75.010;2023-07-31T07:29:04;99970.66;;;18.95;73.80
77482;BME280;66582;43.004;-75.010;2023-07-31T07:31:30;99972.37;;;18.13;75.20
77482;BME280;66582;43.004;-75.010;2023-07-31T07:33:54;99974.28;;;17.04;75.93
77482;BME280;66582;43.004;-75.010;2023-07-31T07:36:19;99979.48;;;13.76;95.40
77482;BME280;66582;43.004;-75.010;2023-07-31T07:38:45;99972.27;;;16.36;85.78
77482;BME280;66582;43.004;-75.010;2023-07-31T07:41:10;99976.57;;;13.17;97.53
77482;BME280;66582;43.004;-75.010;2023-07-31T07:43:35;99975.12;;;12.36;100.00
77482;BME280;66582;43.004;-75.010;2023-07-31T07:46:00;99971.40;;;12.98;100.00
77482;BME280;66582;43.004;-75.010;2023-07-31T07:48:25;99976.16;;;11.57;100.00
77482;BME280;66582;43.004;-75.010;2023-07-31T07:50:51;99973.06;;;13.79;100.00
77482;BME280;66582;43.004;-75.010;2023-07-31T07:53:15;99966.10;;;16.01;87.76
77482;BME280;66582;43.004;-75.010;2023-07-31T07:55:41;99967.44;;;16.22;84.25
77482;BME280;66582;43.004;-75.010;2023-07-31T07:58:07;99978.36;;;14.27;93.84
77482;BME280;66582;43.004;-75.010;2023-07-31T08:00:31;99982.32;;;14.45;93.06
77482;BME280;66582;43.004;-75.010;2023-07-31T08:02:56;99987.44;;;13.47;96.43
77482;BME280;66582;43.004;-75.010;2023-07-31T08:05:21;99979.61;;;14.35;92.54
77482;BME280;66582;43.004;-75.010;2023-07-31T08:07:46;99983.26;;;13.88;98.98
77482;BME280;66582;43.004;-75.010;2023-07-31T08:10:12;99989.10;;;11.97;100.00
77482;BME280;66582;43.004;-75.010;2023-07-31T08:12:38;99993.61;;;11.38;100.00
77482;BME280;66582;43.004;-75.010;2023-07-31T08:15:03;99996.10;;;12.43;100.00
77482;BME280;66582;43.004;-75.010;2023-07-31T08:17:28;99989.03;;;14.82;97.08
77482;BME280;66582;43.004;-75.010;2023-07-31T08:19:53;99992.25;;;12.59;100.00
77482;BME280;66582;43.004;-75.010;2023-07-31T08:22:18;99995.34;;;12.50;100.00
77482;BME280;66582;43.004;-75.010;2023-07-31T08:24:44;99989.39;;;14.89;95.73
77482;BME280;66582;43.004;-75.010;2023-07-31T08:27:09;99992.88;;;13.71;97.78
77482;BME280;66582;43.004;-75.010;2023-07-31T08:29:34;99997.47;;;12.83;100.00
77482;BME280;66582;43.004;-75.010;2023-07-31T08:31:59;99997.82;;;12.89;100.00
77482;BME280;66582;43.004;-75.010;2023-07-31T08:34:24;100004.72;;;12.75;100.00
77482;BME280;66582;43.004;-75.010;2023-07-31T08:36:49;100007.33;;;11.03;100.00
77482;BME280;66582;43.004;-75.010;2023-07-31T08:39:15;100005.83;;;14.28;100.00
77482;BME280;66582;43.004;-75.010;2023-07-31T08:41:40;100006.88;;;14.06;96.25
77482;BME280;66582;43.004;-75.010;2023-07-31T08:44:05;100006.27;;;13.76;100.00
77482;BME280;66582;43.004;-75.010;2023-07-31T08:46:31;99999.72;;;15.53;89.85
77482;BME280;66582;43.004;-75.010;2023-07-31T08:48:56;100011.19;;;11.69;100.00
77482;BME280;66582;43.004;-75.010;2023-07-31T08:51:21;100013.62;;;11.52;100.00
77482;BME280;66582;43.004;-75.010;2023-07-31T08:53:47;100000.27;;;14.78;96.40
77482;BME280;66582;43.004;-75.010;2023-07-31T08:56:12;100003.81;;;14.32;95.65
77482;BME280;66582;43.004;-75.010;2023-07-31T08:58:37;100000.87;;;15.75;87.72
77482;BME280;66582;43.004;-75.010;2023-07-31T09:01:04;99995.44;;;16.00;87.66
77482;BME280;66582;43.004;-75.010;2023-07-31T09:03:27;99996.56;;;16.29;85.34
77482;BME280;66582;43.004;-75.010;2023-07-31T09:05:52;100006.17;;;16.22;85.40
77482;BME280;66582;43.004;-75.010;2023-07-31T09:08:19;100012.96;;;16.60;83.00
77482;BME280;66582;43.004;-75.010;2023-07-31T09:10:43;100011.33;;;17.89;77.34
77482;BME280;66582;43.004;-75.010;2023-07-31T09:13:08;100005.32;;;18.18;75.43
77482;BME280;66582;43.004;-75.010;2023-07-31T09:15:33;100011.19;;;15.85;83.86
77482;BME280;66582;43.004;-75.010;2023-07-31T09:18:00;100022.22;;;13.30;100.00
77482;BME280;66582;43.004;-75.010;2023-07-31T09:20:23;100018.00;;;14.47;95.70
77482;BME280;66582;43.004;-75.010;2023-07-31T09:22:49;100016.92;;;14.08;95.25
77482;BME280;66582;43.004;-75.010;2023-07-31T09:25:16;100015.80;;;14.03;95.38
77482;BME280;66582;43.004;-75.010;2023-07-31T09:27:47;100022.32;;;12.04;100.00
77482;BME280;66582;43.004;-75.010;2023-07-31T09:30:05;100022.42;;;10.79;100.00
77482;BME280;66582;43.004;-75.010;2023-07-31T09:32:32;100015.14;;;14.06;100.00
77482;BME280;66582;43.004;-75.010;2023-07-31T09:34:55;100012.58;;;15.65;96.54
77482;BME280;66582;43.004;-75.010;2023-07-31T09:37:19;100007.07;;;16.66;91.55
77482;BME280;66582;43.004;-75.010;2023-07-31T09:39:48;100013.21;;;15.23;97.72
77482;BME280;66582;43.004;-75.010;2023-07-31T09:42:10;100014.54;;;16.48;92.56
77482;BME280;66582;43.004;-75.010;2023-07-31T09:44:39;100015.79;;;17.37;84.62
77482;BME280;66582;43.004;-75.010;2023-07-31T09:47:00;100014.99;;;18.16;81.70
77482;BME280;66582;43.004;-75.010;2023-07-31T09:49:25;100018.00;;;16.78;86.74
77482;BME280;66582;43.004;-75.010;2023-07-31T09:51:51;100019.17;;;17.76;81.98
77482;BME280;66582;43.004;-75.010;2023-07-31T09:54:16;100018.22;;;17.95;81.72
77482;BME280;66582;43.004;-75.010;2023-07-31T09:56:43;100017.93;;;17.61;79.62
77482;BME280;66582;43.004;-75.010;2023-07-31T09:59:07;100018.63;;;15.19;89.05
77482;BME280;66582;43.004;-75.010;2023-07-31T10:01:31;100014.71;;;16.60;80.02
77482;BME280;66582;43.004;-75.010;2023-07-31T10:03:57;100019.34;;;15.52;87.77
77482;BME280;66582;43.004;-75.010;2023-07-31T10:06:21;100021.76;;;15.79;90.63
77482;BME280;66582;43.004;-75.010;2023-07-31T10:08:48;100019.12;;;17.57;79.30
77482;BME280;66582;43.004;-75.010;2023-07-31T10:11:12;100024.37;;;17.50;78.60
77482;BME280;66582;43.004;-75.010;2023-07-31T10:13:37;100024.14;;;17.64;77.03
77482;BME280;66582;43.004;-75.010;2023-07-31T10:16:02;100032.09;;;17.80;76.68
77482;BME280;66582;43.004;-75.010;2023-07-31T10:18:29;100034.71;;;17.49;77.98
77482;BME280;66582;43.004;-75.010;2023-07-31T10:20:53;100041.77;;;17.83;78.26
77482;BME280;66582;43.004;-75.010;2023-07-31T10:23:18;100045.16;;;17.07;82.41
77482;BME280;66582;43.004;-75.010;2023-07-31T10:25:43;100051.79;;;17.32;82.38
77482;BME280;66582;43.004;-75.010;2023-07-31T10:28:08;100057.24;;;17.83;80.94
77482;BME280;66582;43.004;-75.010;2023-07-31T10:30:34;100056.75;;;17.12;82.84
77482;BME280;66582;43.004;-75.010;2023-07-31T10:32:58;100063.54;;;18.13;80.95
77482;BME280;66582;43.004;-75.010;2023-07-31T10:35:23;100069.09;;;17.16;81.65
77482;BME280;66582;43.004;-75.010;2023-07-31T10:37:48;100066.83;;;17.51;82.18
77482;BME280;66582;43.004;-75.010;2023-07-31T10:40:18;100060.56;;;18.32;78.52
77482;BME280;66582;43.004;-75.010;2023-07-31T10:42:45;100060.61;;;17.89;78.43
77482;BME280;66582;43.004;-75.010;2023-07-31T10:45:07;100069.16;;;16.59;83.62
77482;BME280;66582;43.004;-75.010;2023-07-31T10:47:29;100071.22;;;17.97;79.60
77482;BME280;66582;43.004;-75.010;2023-07-31T10:52:20;100088.26;;;13.70;100.00
77482;BME280;66582;43.004;-75.010;2023-07-31T10:54:44;100083.82;;;16.19;94.21
77482;BME280;66582;43.004;-75.010;2023-07-31T10:57:20;100080.07;;;16.42;91.39
77482;BME280;66582;43.004;-75.010;2023-07-31T10:59:39;100085.74;;;16.68;88.23
77482;BME280;66582;43.004;-75.010;2023-07-31T11:02:00;100086.74;;;17.24;85.47
77482;BME280;66582;43.004;-75.010;2023-07-31T11:04:26;100090.58;;;17.88;82.16
77482;BME280;66582;43.004;-75.010;2023-07-31T11:06:56;100086.42;;;18.31;81.27
77482;BME280;66582;43.004;-75.010;2023-07-31T11:09:15;100083.83;;;18.98;76.35
77482;BME280;66582;43.004;-75.010;2023-07-31T11:11:40;100094.33;;;17.05;83.42
77482;BME280;66582;43.004;-75.010;2023-07-31T11:14:05;100106.35;;;14.84;94.26
77482;BME280;66582;43.004;-75.010;2023-07-31T11:16:31;100106.41;;;16.93;87.68
77482;BME280;66582;43.004;-75.010;2023-07-31T11:18:55;100109.52;;;17.42;83.51
77482;BME280;66582;43.004;-75.010;2023-07-31T11:21:22;100116.28;;;16.28;87.14
77482;BME280;66582;43.004;-75.010;2023-07-31T11:23:47;100121.64;;;16.05;94.13
77482;BME280;66582;43.004;-75.010;2023-07-31T11:26:12;100125.88;;;18.27;83.00
77482;BME280;66582;43.004;-75.010;2023-07-31T11:28:37;100125.57;;;18.67;80.13
77482;BME280;66582;43.004;-75.010;2023-07-31T11:31:03;100119.93;;;19.24;76.32
77482;BME280;66582;43.004;-75.010;2023-07-31T11:33:28;100121.82;;;18.50;78.27
77482;BME280;66582;43.004;-75.010;2023-07-31T11:35:52;100129.39;;;18.00;77.57
77482;BME280;66582;43.004;-75.010;2023-07-31T11:38:22;100128.29;;;19.72;74.59
77482;BME280;66582;43.004;-75.010;2023-07-31T11:40:43;100139.30;;;18.31;80.60
77482;BME280;66582;43.004;-75.010;2023-07-31T11:43:08;100135.94;;;18.72;76.72
77482;BME280;66582;43.004;-75.010;2023-07-31T11:45:34;100132.34;;;18.44;73.88
77482;BME280;66582;43.004;-75.010;2023-07-31T11:47:59;100134.97;;;19.88;70.67
77482;BME280;66582;43.004;-75.010;2023-07-31T11:50:24;100133.99;;;21.15;68.82
77482;BME280;66582;43.004;-75.010;2023-07-31T11:52:53;100136.25;;;20.93;67.23
77482;BME280;66582;43.004;-75.010;2023-07-31T11:55:14;100146.98;;;17.83;74.98
77482;BME280;66582;43.004;-75.010;2023-07-31T11:57:40;100140.22;;;20.34;69.62
77482;BME280;66582;43.004;-75.010;2023-07-31T12:00:08;100148.13;;;17.99;75.45
77482;BME280;66582;43.004;-75.010;2023-07-31T12:02:30;100154.04;;;15.40;94.84
77482;BME280;66582;43.004;-75.010;2023-07-31T12:04:55;100147.27;;;17.45;88.09
77482;BME280;66582;43.004;-75.010;2023-07-31T12:07:20;100146.76;;;19.14;79.28
77482;BME280;66582;43.004;-75.010;2023-07-31T12:09:52;100147.43;;;20.51;73.55
77482;BME280;66582;43.004;-75.010;2023-07-31T12:12:10;100146.93;;;21.21;67.24
77482;BME280;66582;43.004;-75.010;2023-07-31T12:14:36;100145.51;;;21.01;69.30
77482;BME280;66582;43.004;-75.010;2023-07-31T12:17:05;100144.37;;;21.94;65.35
77482;BME280;66582;43.004;-75.010;2023-07-31T12:19:27;100143.79;;;22.86;58.43
77482;BME280;66582;43.004;-75.010;2023-07-31T12:21:51;100153.06;;;19.91;63.52
77482;BME280;66582;43.004;-75.010;2023-07-31T12:24:19;100149.20;;;21.59;63.92